Time;durP1;ratioP1;P1;durP2;ratioP2;P2;SDS_P1;SDS_P2;PMS_P1;PMS_P2;Temp;Humidity;BMP_temperature;BMP_pressure;BME280_temperature;BME280_humidity;BME280_pressure;Samples;Min_cycle;Max_cycle;Signal;HPM_P1;HPM_P2
2022/05/04 00:01:46;;;;;;;2.30;1.70;;;10.90;87.80;10.80;100721.00;;;;4955829;28;108048;-67
2022/05/04 00:04:11;;;;;;;3.37;1.80;;;10.80;88.30;10.70;100722.00;;;;4956047;28;87684;-67
2022/05/04 00:06:37;;;;;;;3.40;1.80;;;10.80;88.50;10.70;100726.00;;;;4952632;28;89226;-66
2022/05/04 00:09:03;;;;;;;1.77;1.67;;;10.80;88.90;10.70;100726.00;;;;4934413;28;117063;-67
2022/05/04 00:11:29;;;;;;;1.63;1.47;;;10.70;89.40;10.70;100729.00;;;;4936010;28;87687;-67
2022/05/04 00:13:55;;;;;;;2.13;1.93;;;10.70;90.00;10.60;100737.00;;;;4935940;28;88598;-67
2022/05/04 00:16:21;;;;;;;2.50;1.90;;;10.70;90.30;10.60;100727.00;;;;4935176;28;117938;-67
2022/05/04 00:18:46;;;;;;;2.80;2.50;;;10.70;90.50;10.60;100727.00;;;;4960398;28;116776;-67
2022/05/04 00:21:12;;;;;;;2.20;1.40;;;10.60;90.80;10.50;100722.00;;;;4991139;28;109248;-68
2022/05/04 00:23:38;;;;;;;4.53;2.53;;;10.60;91.10;10.50;100717.00;;;;4984422;28;107417;-66
2022/05/04 00:26:04;;;;;;;2.47;1.93;;;10.50;91.30;10.40;100715.00;;;;4955524;28;88220;-68
2022/05/04 00:28:29;;;;;;;1.80;1.70;;;10.50;91.60;10.40;100720.00;;;;4950885;28;106623;-68
2022/05/04 00:30:55;;;;;;;5.23;2.43;;;10.50;91.80;10.40;100714.00;;;;4953932;28;87636;-67
2022/05/04 00:33:20;;;;;;;2.57;2.03;;;10.40;92.10;10.30;100723.00;;;;4953987;28;108309;-67
2022/05/04 00:35:46;;;;;;;3.50;1.77;;;10.40;92.20;10.30;100724.00;;;;4954941;28;106701;-68
2022/05/04 00:38:12;;;;;;;2.40;1.50;;;10.40;92.40;10.30;100725.00;;;;4938551;28;115837;-67
2022/05/04 00:40:37;;;;;;;2.33;1.63;;;10.30;92.50;10.30;100724.00;;;;4934879;28;93595;-67
2022/05/04 00:43:03;;;;;;;2.10;1.77;;;10.30;92.60;10.30;100725.00;;;;4935079;28;109235;-68
2022/05/04 00:45:29;;;;;;;3.53;1.83;;;10.30;92.70;10.20;100721.00;;;;4934228;28;118057;-66
2022/05/04 00:47:54;;;;;;;1.30;1.20;;;10.20;92.80;10.20;100726.00;;;;4935978;28;117544;-67
2022/05/04 00:50:20;;;;;;;3.83;1.93;;;10.20;92.90;10.20;100718.00;;;;4934300;28;110187;-67
2022/05/04 00:52:49;;;;;;;3.47;1.77;;;10.20;93.10;10.20;100716.00;;;;4934554;28;109448;-67
2022/05/04 00:55:19;;;;;;;2.07;1.87;;;10.20;93.20;10.10;100724.00;;;;4935328;28;88697;-68
2022/05/04 01:00:30;;;;;;;2.87;1.97;;;10.10;93.50;9.90;100726.00;;;;4945830;28;87832;-68
2022/05/04 01:02:56;;;;;;;2.03;1.90;;;10.00;93.70;9.90;100725.00;;;;4954873;28;107598;-67
2022/05/04 01:05:22;;;;;;;5.10;2.13;;;9.90;93.80;9.80;100729.00;;;;4953828;28;117874;-68
2022/05/04 01:07:50;;;;;;;1.57;1.43;;;9.90;94.30;9.80;100716.00;;;;4952115;28;104583;-67
2022/05/04 01:10:16;;;;;;;2.13;1.93;;;9.90;94.20;9.70;100727.00;;;;4954381;28;87693;-67
2022/05/04 01:12:50;;;;;;;2.50;1.63;;;9.80;94.50;9.70;100724.00;;;;4933675;28;100104;-67
2022/05/04 01:15:17;;;;;;;2.17;1.37;;;9.80;94.80;9.60;100721.00;;;;4936332;28;99325;-67
2022/05/04 01:17:43;;;;;;;1.60;1.50;;;9.70;95.10;9.50;100718.00;;;;4942900;28;87701;-67
2022/05/04 01:20:09;;;;;;;1.93;1.60;;;9.60;95.20;9.40;100717.00;;;;4953531;28;96521;-67
2022/05/04 01:22:36;;;;;;;9.87;1.93;;;9.50;95.40;9.30;100720.00;;;;4953957;28;99995;-67
2022/05/04 01:25:03;;;;;;;3.70;1.67;;;9.50;95.70;9.20;100730.00;;;;4954875;28;88604;-67
2022/05/04 01:27:29;;;;;;;2.03;1.53;;;9.40;95.90;9.20;100728.00;;;;4940929;28;88920;-68
2022/05/04 01:29:54;;;;;;;2.40;1.87;;;9.30;96.30;9.10;100730.00;;;;4953716;28;109159;-67
2022/05/04 01:32:20;;;;;;;2.13;1.93;;;9.20;96.80;8.90;100725.00;;;;4954438;28;108251;-67
2022/05/04 01:34:55;;;;;;;1.67;1.50;;;9.10;97.30;8.80;100726.00;;;;4953827;28;116841;-67
2022/05/04 01:37:20;;;;;;;1.73;1.50;;;9.00;97.70;8.70;100718.00;;;;4950516;28;110581;-67
2022/05/04 01:39:46;;;;;;;1.90;1.70;;;8.90;98.20;8.60;100720.00;;;;4934399;28;109466;-67
2022/05/04 01:42:16;;;;;;;2.00;1.73;;;8.70;98.60;8.50;100724.00;;;;4934249;28;108886;-67
2022/05/04 01:44:44;;;;;;;1.63;1.53;;;8.60;98.90;8.40;100722.00;;;;4934901;28;88039;-67
2022/05/04 01:47:11;;;;;;;2.13;1.60;;;8.60;99.30;8.40;100731.00;;;;4950620;28;88851;-67
2022/05/04 01:49:39;;;;;;;4.93;1.80;;;8.50;99.40;8.30;100719.00;;;;4934465;28;91967;-67
2022/05/04 01:52:05;;;;;;;4.77;2.00;;;8.40;99.60;8.20;100715.00;;;;4935083;28;87509;-67
2022/05/04 01:54:31;;;;;;;1.20;1.10;;;8.30;99.90;8.20;100713.00;;;;4933740;28;107938;-67
2022/05/04 01:56:57;;;;;;;1.60;1.50;;;8.30;99.90;8.10;100713.00;;;;4933826;28;117344;-68
2022/05/04 01:59:22;;;;;;;1.10;1.00;;;8.00;99.90;8.10;100718.00;;;;4952647;28;109936;-67
2022/05/04 02:01:49;;;;;;;1.90;1.70;;;8.20;99.90;8.10;100709.00;;;;4940512;28;87792;-67
2022/05/04 02:04:15;;;;;;;2.63;1.50;;;8.20;99.90;8.00;100712.00;;;;4934809;28;116979;-67
2022/05/04 02:06:42;;;;;;;1.77;1.53;;;8.10;99.90;8.00;100724.00;;;;4936383;28;88217;-67
2022/05/04 02:09:08;;;;;;;1.93;1.63;;;8.10;99.90;7.90;100716.00;;;;4937049;28;109408;-67
2022/05/04 02:11:35;;;;;;;1.47;1.33;;;8.10;99.90;7.90;100710.00;;;;4938045;28;88700;-67
2022/05/04 02:14:02;;;;;;;4.27;2.13;;;8.00;99.90;7.80;100716.00;;;;4937114;28;88679;-67
2022/05/04 02:16:28;;;;;;;3.90;2.10;;;7.90;99.90;7.70;100707.00;;;;4937931;28;88298;-67
2022/05/04 02:18:55;;;;;;;2.87;2.43;;;7.90;99.90;7.70;100724.00;;;;4940713;28;87918;-67
2022/05/04 02:21:21;;;;;;;2.33;1.73;;;8.00;99.90;7.60;100717.00;;;;4953655;28;99249;-67
2022/05/04 02:23:47;;;;;;;3.03;2.20;;;8.00;99.90;7.60;100712.00;;;;4956402;28;117437;-67
2022/05/04 02:26:12;;;;;;;2.00;1.77;;;7.70;99.90;7.60;100712.00;;;;4957306;28;111511;-67
2022/05/04 02:28:38;;;;;;;2.57;2.03;;;7.70;99.90;7.60;100715.00;;;;4956570;28;108887;-67
2022/05/04 02:31:04;;;;;;;2.70;1.77;;;7.70;99.90;7.60;100704.00;;;;4957028;28;90521;-67
2022/05/04 02:33:29;;;;;;;3.33;2.23;;;7.70;99.90;7.60;100718.00;;;;4956576;28;116315;-67
2022/05/04 02:38:40;;;;;;;4.83;2.97;;;7.80;99.90;7.70;100714.00;;;;4945103;28;87780;-67
2022/05/04 02:41:05;;;;;;;2.43;2.13;;;7.80;99.90;7.70;100723.00;;;;4937284;28;87688;-67
2022/05/04 02:43:32;;;;;;;2.60;1.97;;;7.80;99.90;7.80;100716.00;;;;4951371;28;116371;-67
2022/05/04 02:46:11;;;;;;;6.00;2.83;;;7.90;99.90;7.90;100729.00;;;;4937493;28;87766;-67
2022/05/04 02:48:37;;;;;;;3.23;2.20;;;7.90;99.90;8.00;100730.00;;;;4938269;28;98483;-67
2022/05/04 02:51:02;;;;;;;3.43;1.93;;;8.00;99.90;8.00;100726.00;;;;4936721;28;109946;-67
2022/05/04 02:53:28;;;;;;;3.83;1.90;;;8.10;99.90;8.00;100722.00;;;;4937547;28;117314;-68
2022/05/04 02:55:54;;;;;;;2.60;2.40;;;8.10;99.90;8.10;100714.00;;;;4940485;28;111351;-67
2022/05/04 02:58:19;;;;;;;4.57;2.47;;;8.10;99.90;8.10;100727.00;;;;4955507;28;109572;-67
2022/05/04 03:00:45;;;;;;;2.83;2.43;;;8.20;99.90;8.20;100723.00;;;;4955397;28;97158;-67
2022/05/04 03:03:10;;;;;;;3.47;2.23;;;8.20;99.90;8.20;100724.00;;;;4956388;28;117151;-67
2022/05/04 03:05:36;;;;;;;3.00;2.27;;;8.30;99.90;8.30;100729.00;;;;4954079;28;99253;-67
2022/05/04 03:08:06;;;;;;;3.03;1.70;;;8.30;99.90;8.30;100719.00;;;;4951697;28;102700;-67
2022/05/04 03:11:54;;;;;;;5.53;2.63;;;8.30;99.90;8.40;100720.00;;;;4937079;28;88064;-67
2022/05/04 03:13:17;;;;;;;3.70;2.67;;;8.40;99.90;8.30;100720.00;;;;4936537;28;87644;-67
2022/05/04 03:15:48;;;;;;;4.77;2.30;;;8.40;99.90;8.40;100719.00;;;;4935617;28;96127;-67
2022/05/04 03:18:14;;;;;;;2.43;2.10;;;8.40;99.90;8.40;100723.00;;;;4944244;28;111139;-68
2022/05/04 03:20:40;;;;;;;4.37;2.67;;;8.40;99.90;8.40;100718.00;;;;4954316;28;87952;-67
2022/05/04 03:23:05;;;;;;;3.27;1.93;;;8.50;99.90;8.40;100720.00;;;;4954638;28;118117;-67
2022/05/04 03:25:31;;;;;;;3.43;2.93;;;8.50;99.90;8.40;100721.00;;;;4955188;28;116774;-67
2022/05/04 03:27:57;;;;;;;2.10;1.90;;;8.50;99.90;8.40;100722.00;;;;4952131;28;87676;-67
2022/05/04 03:30:23;;;;;;;2.73;2.23;;;8.50;99.90;8.30;100721.00;;;;4936286;28;108749;-67
2022/05/04 03:32:48;;;;;;;2.50;1.93;;;8.40;99.90;8.20;100726.00;;;;4935795;28;116048;-67
2022/05/04 03:35:15;;;;;;;2.33;2.13;;;8.40;99.90;8.20;100730.00;;;;4936534;28;87657;-67
2022/05/04 03:37:41;;;;;;;2.67;2.37;;;8.30;99.90;8.10;100730.00;;;;4938393;28;87699;-67
2022/05/04 03:40:10;;;;;;;2.07;1.90;;;8.20;99.90;8.10;100718.00;;;;4955260;28;109304;-68
2022/05/04 03:42:35;;;;;;;4.50;3.23;;;8.20;99.90;8.00;100733.00;;;;4957414;28;88032;-67
2022/05/04 03:45:01;;;;;;;4.57;2.47;;;8.10;99.90;7.90;100736.00;;;;4955299;28;114357;-67
2022/05/04 03:47:26;;;;;;;13.70;8.73;;;8.00;99.90;7.90;100729.00;;;;4955801;28;110815;-67
2022/05/04 03:49:52;;;;;;;4.27;3.10;;;8.00;99.90;7.80;100736.00;;;;4953054;28;88857;-67
2022/05/04 03:52:18;;;;;;;4.33;2.97;;;7.90;99.90;7.80;100742.00;;;;4936315;28;89060;-67
2022/05/04 03:54:44;;;;;;;3.80;2.53;;;8.30;99.90;7.70;100739.00;;;;4936977;28;88293;-67
2022/05/04 03:57:10;;;;;;;3.80;2.53;;;7.90;99.90;7.70;100741.00;;;;4940259;28;88204;-67
2022/05/04 03:59:35;;;;;;;8.43;4.43;;;7.80;99.90;7.60;100737.00;;;;4951788;28;109357;-68
2022/05/04 04:02:01;;;;;;;3.30;2.83;;;7.60;99.90;7.50;100744.00;;;;4955310;28;116670;-67
2022/05/04 04:04:27;;;;;;;3.30;3.00;;;7.60;99.90;7.50;100738.00;;;;4955612;28;116912;-67
2022/05/04 04:06:52;;;;;;;4.70;3.33;;;7.60;99.90;7.50;100736.00;;;;4956581;28;86940;-68
2022/05/04 04:09:18;;;;;;;5.77;2.90;;;7.60;99.90;7.50;100751.00;;;;4955812;28;100385;-67
2022/05/04 04:11:44;;;;;;;5.10;3.07;;;7.60;99.90;7.60;100746.00;;;;4938053;28;118737;-67
2022/05/04 04:14:09;;;;;;;5.53;3.73;;;7.60;99.90;7.60;100747.00;;;;4934450;28;116922;-67
2022/05/04 04:16:35;;;;;;;7.23;3.90;;;7.70;99.90;7.70;100743.00;;;;4936692;28;91922;-66
2022/05/04 04:19:01;;;;;;;3.20;2.73;;;7.80;99.90;7.80;100741.00;;;;4935237;28;108809;-66
2022/05/04 04:24:12;;;;;;;4.23;3.20;;;7.80;99.90;7.70;100754.00;;;;4933593;28;87987;-67
2022/05/04 04:26:38;;;;;;;4.17;2.83;;;7.80;99.90;7.70;100742.00;;;;4935998;28;108921;-67
2022/05/04 04:29:04;;;;;;;4.10;3.47;;;7.80;99.90;7.80;100750.00;;;;4935129;28;88264;-67
2022/05/04 04:31:30;;;;;;;8.23;5.47;;;7.80;99.90;7.80;100756.00;;;;4936972;28;108853;-67
2022/05/04 04:33:56;;;;;;;6.23;3.90;;;7.90;99.90;7.90;100765.00;;;;4935453;28;87852;-67
2022/05/04 04:36:22;;;;;;;5.03;2.90;;;8.20;99.90;7.90;100769.00;;;;4936462;28;87698;-66
2022/05/04 04:38:48;;;;;;;7.57;3.37;;;7.90;99.90;8.00;100768.00;;;;4934456;28;108000;-67
2022/05/04 04:41:13;;;;;;;3.53;2.60;;;8.00;99.90;8.00;100758.00;;;;4936050;28;88597;-67
2022/05/04 04:43:39;;;;;;;3.90;3.30;;;7.70;99.90;8.10;100751.00;;;;4936086;28;116707;-67
2022/05/04 04:46:27;;;;;;;4.17;3.00;;;8.00;99.90;8.10;100755.00;;;;4937976;28;110376;-66
2022/05/04 04:48:52;;;;;;;4.20;3.13;;;8.10;99.90;8.20;100753.00;;;;4950832;28;87871;-67
2022/05/04 04:51:18;;;;;;;3.50;2.70;;;8.20;99.90;8.30;100758.00;;;;4950249;28;87838;-67
2022/05/04 04:53:44;;;;;;;3.77;2.83;;;8.30;99.90;8.30;100749.00;;;;4948247;28;87899;-67
2022/05/04 04:56:09;;;;;;;4.90;2.97;;;8.40;99.90;8.40;100755.00;;;;4955729;28;108125;-66
2022/05/04 04:58:35;;;;;;;3.90;3.50;;;8.40;99.90;8.50;100751.00;;;;4955714;28;87659;-67
2022/05/04 05:01:01;;;;;;;5.67;3.33;;;8.50;99.90;8.60;100756.00;;;;4952064;28;117850;-67
2022/05/04 05:03:27;;;;;;;2.93;2.73;;;8.60;99.90;8.90;100762.00;;;;4950324;28;88958;-67
2022/05/04 05:05:53;;;;;;;4.87;3.17;;;8.80;99.90;9.20;100762.00;;;;4936565;28;88482;-66
2022/05/04 05:08:19;;;;;;;3.30;2.97;;;9.10;99.90;9.40;100765.00;;;;4934721;28;108137;-66
2022/05/04 05:10:47;;;;;;;4.07;3.13;;;9.30;99.90;9.60;100762.00;;;;4935590;28;117563;-67
2022/05/04 05:13:13;;;;;;;4.87;2.90;;;9.50;99.90;9.80;100762.00;;;;4935284;28;88666;-66
2022/05/04 05:18:24;;;;;;;5.60;3.00;;;9.90;99.90;10.10;100759.00;;;;4954631;28;87842;-67
2022/05/04 05:20:50;;;;;;;3.80;2.60;;;10.10;99.90;10.20;100767.00;;;;4954136;28;115059;-67
2022/05/04 05:23:16;;;;;;;4.10;2.53;;;10.20;99.90;10.30;100766.00;;;;4953246;28;87762;-67
2022/05/04 05:25:42;;;;;;;4.17;2.83;;;10.30;99.90;10.40;100767.00;;;;4941617;28;87782;-67
2022/05/04 05:28:07;;;;;;;7.73;2.97;;;10.30;99.90;10.50;100768.00;;;;4934060;28;109495;-66
2022/05/04 05:30:33;;;;;;;3.77;2.23;;;10.40;99.90;10.60;100768.00;;;;4934404;28;116672;-67
2022/05/04 05:32:59;;;;;;;3.37;2.93;;;10.60;99.90;10.70;100772.00;;;;4935459;28;87852;-67
2022/05/04 05:35:24;;;;;;;2.23;2.03;;;10.50;99.90;10.80;100781.00;;;;4935778;28;111556;-67
2022/05/04 05:37:50;;;;;;;3.07;2.17;;;10.70;99.90;11.00;100778.00;;;;4934244;28;108142;-67
2022/05/04 05:40:16;;;;;;;5.00;2.63;;;10.90;99.90;11.10;100787.00;;;;4947661;28;118402;-67
2022/05/04 05:42:41;;;;;;;3.47;1.80;;;11.00;99.90;11.20;100787.00;;;;4938188;28;114017;-67
2022/05/04 05:45:08;;;;;;;3.70;2.40;;;11.10;99.90;11.30;100778.00;;;;4948117;28;87134;-67
2022/05/04 05:47:33;;;;;;;3.53;2.33;;;11.20;99.90;11.40;100782.00;;;;4958364;28;87666;-66
2022/05/04 05:49:59;;;;;;;6.17;2.20;;;11.30;99.90;11.60;100784.00;;;;4957073;28;117164;-67
2022/05/04 05:52:26;;;;;;;2.13;1.77;;;11.50;99.90;11.80;100779.00;;;;4955080;28;88793;-67
2022/05/04 05:54:51;;;;;;;3.07;2.03;;;11.70;99.90;12.10;100788.00;;;;4952997;28;110581;-67
2022/05/04 05:57:17;;;;;;;2.80;1.97;;;11.90;99.90;12.30;100790.00;;;;4937852;28;108297;-66
2022/05/04 05:59:43;;;;;;;2.17;1.73;;;12.10;99.90;12.50;100800.00;;;;4948749;28;119315;-67
2022/05/04 06:02:08;;;;;;;3.50;2.23;;;12.30;99.90;12.80;100792.00;;;;4957695;28;116533;-67
2022/05/04 06:04:34;;;;;;;2.17;2.07;;;12.50;99.90;13.00;100792.00;;;;4957206;28;109839;-67
2022/05/04 06:06:59;;;;;;;3.73;2.20;;;12.80;99.90;13.10;100793.00;;;;4957216;28;108984;-67
2022/05/04 06:09:25;;;;;;;4.73;2.30;;;12.90;99.90;13.20;100791.00;;;;4956674;28;116513;-66
2022/05/04 06:11:52;;;;;;;3.07;2.17;;;13.10;99.90;13.30;100790.00;;;;4947366;28;115364;-68
2022/05/04 06:14:18;;;;;;;4.97;2.03;;;13.20;99.90;13.30;100786.00;;;;4936226;28;87906;-67
2022/05/04 06:16:44;;;;;;;2.03;1.83;;;13.20;99.90;13.40;100790.00;;;;4938060;28;88692;-66
2022/05/04 06:19:11;;;;;;;4.13;2.37;;;13.20;99.90;13.40;100784.00;;;;4937758;28;89070;-67
2022/05/04 06:21:36;;;;;;;2.80;1.90;;;13.30;99.60;13.50;100780.00;;;;4955399;28;109890;-66
2022/05/04 06:24:02;;;;;;;1.93;1.67;;;13.40;99.20;13.70;100786.00;;;;4957165;28;98289;-66
2022/05/04 06:26:28;;;;;;;1.77;1.30;;;13.50;98.20;13.90;100783.00;;;;4948689;28;99233;-66
2022/05/04 06:28:53;;;;;;;4.07;2.13;;;13.80;97.40;14.20;100795.00;;;;4939916;28;118094;-66
2022/05/04 06:34:11;;;;;;;2.30;2.10;;;14.20;94.60;14.60;100791.00;;;;4957807;28;86845;-67
2022/05/04 06:36:42;;;;;;;1.92;1.73;;;14.40;93.90;14.90;100805.00;;;;4946182;28;87912;-67
2022/05/04 06:39:09;;;;;;;3.08;2.05;;;14.70;92.80;15.10;100801.00;;;;4942935;28;88880;-67
2022/05/04 06:41:37;;;;;;;2.92;1.83;;;14.90;91.70;15.30;100799.00;;;;4957057;28;92978;-67
2022/05/04 06:44:04;;;;;;;4.18;2.00;;;15.10;90.60;15.50;100795.00;;;;4957068;28;101345;-67
2022/05/04 06:46:30;;;;;;;2.42;2.20;;;15.30;88.20;15.60;100790.00;;;;4958147;28;87964;-67
2022/05/04 06:48:56;;;;;;;2.20;2.00;;;15.40;87.00;15.80;100795.00;;;;4952339;28;88621;-67
2022/05/04 06:51:21;;;;;;;3.20;2.08;;;15.60;86.10;15.90;100805.00;;;;4939091;28;88729;-67
2022/05/04 06:53:47;;;;;;;4.88;2.05;;;15.70;84.20;16.00;100809.00;;;;4938211;28;108671;-67
2022/05/04 06:56:13;;;;;;;3.42;2.00;;;15.80;83.70;16.20;100810.00;;;;4937406;28;109005;-67
2022/05/04 06:58:38;;;;;;;2.00;1.63;;;16.00;82.30;16.40;100809.00;;;;4938039;28;117655;-67
2022/05/04 07:01:08;;;;;;;2.42;1.80;;;16.20;81.90;16.70;100810.00;;;;4955653;28;111646;-67
2022/05/04 07:03:34;;;;;;;4.45;2.00;;;16.40;81.30;17.00;100813.00;;;;4957543;28;87645;-67
2022/05/04 07:05:59;;;;;;;3.80;1.80;;;16.70;80.00;17.20;100811.00;;;;4955758;28;109089;-67
2022/05/04 07:08:25;;;;;;;3.20;2.03;;;16.90;77.90;17.40;100814.00;;;;4956361;28;117587;-67
2022/05/04 07:10:51;;;;;;;2.30;2.10;;;17.20;76.40;17.70;100822.00;;;;4954182;28;118112;-67
2022/05/04 07:13:17;;;;;;;2.03;1.85;;;17.50;74.40;17.90;100821.00;;;;4937820;28;87982;-66
2022/05/04 07:15:44;;;;;;;1.63;1.45;;;17.70;71.90;18.10;100808.00;;;;4937607;28;87956;-66
2022/05/04 07:18:09;;;;;;;1.75;1.63;;;17.90;71.70;18.40;100807.00;;;;4937262;28;108719;-66
2022/05/04 07:20:35;;;;;;;1.77;1.60;;;18.10;70.70;18.70;100805.00;;;;4945955;28;88553;-67
2022/05/04 07:23:01;;;;;;;2.85;1.85;;;18.40;69.50;18.80;100813.00;;;;4956827;28;110537;-68
2022/05/04 07:25:26;;;;;;;2.22;1.38;;;18.60;67.30;19.00;100802.00;;;;4954499;28;108341;-66
2022/05/04 07:27:52;;;;;;;3.55;2.53;;;18.80;66.50;19.30;100803.00;;;;4957142;28;92455;-66
2022/05/04 07:30:18;;;;;;;2.83;1.83;;;19.00;65.10;19.50;100806.00;;;;4935973;28;118638;-67
2022/05/04 07:32:44;;;;;;;2.22;1.45;;;19.30;64.50;19.90;100796.00;;;;4936454;28;109938;-67
2022/05/04 07:35:10;;;;;;;1.40;1.30;;;19.60;63.70;20.30;100806.00;;;;4936769;28;88715;-67
2022/05/04 07:37:36;;;;;;;2.22;2.03;;;19.90;62.20;20.70;100811.00;;;;4935898;28;117984;-67
2022/05/04 07:42:46;;;;;;;3.78;1.95;;;20.70;59.60;21.40;100806.00;;;;4955703;28;87885;-67
2022/05/04 07:45:13;;;;;;;2.80;1.80;;;21.00;58.80;21.70;100814.00;;;;4956448;28;87728;-67
2022/05/04 07:47:39;;;;;;;1.85;1.75;;;21.30;58.30;22.00;100812.00;;;;4956488;28;88029;-67
2022/05/04 07:50:11;;;;;;;1.98;1.80;;;21.70;57.40;22.40;100802.00;;;;4942930;28;116115;-67
2022/05/04 07:52:37;;;;;;;2.80;2.08;;;22.00;55.60;22.60;100802.00;;;;4957184;28;87709;-67
2022/05/04 07:55:04;;;;;;;2.08;1.90;;;22.30;53.30;22.70;100808.00;;;;4945143;28;99792;-68
2022/05/04 07:57:30;;;;;;;1.40;1.23;;;22.60;52.00;22.80;100798.00;;;;4953155;28;109111;-65
2022/05/04 08:05:30;;;;;;;3.10;1.95;;;22.70;50.10;22.80;100809.00;;;;4956135;28;87683;-65
2022/05/04 08:07:56;;;;;;;1.38;1.27;;;22.60;49.30;22.90;100804.00;;;;4955745;28;89214;-65
2022/05/04 08:10:22;;;;;;;1.67;1.20;;;22.70;49.70;23.00;100811.00;;;;4937030;28;117105;-65
2022/05/04 08:12:47;;;;;;;1.98;1.42;;;22.70;49.30;23.10;100816.00;;;;4937084;28;87099;-65
2022/05/04 08:15:13;;;;;;;1.88;1.35;;;22.90;49.20;23.20;100823.00;;;;4935748;28;108878;-66
2022/05/04 08:17:39;;;;;;;1.52;1.27;;;23.00;48.90;23.40;100809.00;;;;4936206;28;88745;-66
2022/05/04 08:20:06;;;;;;;2.83;1.38;;;23.10;48.60;23.60;100807.00;;;;4942977;28;109146;-65
2022/05/04 08:22:31;;;;;;;1.52;1.42;;;23.30;48.30;23.80;100817.00;;;;4956383;28;87508;-66
2022/05/04 08:24:57;;;;;;;0.95;0.95;;;23.50;47.40;23.90;100804.00;;;;4956627;28;87739;-66
2022/05/04 08:27:23;;;;;;;1.00;0.95;;;23.60;47.20;24.10;100812.00;;;;4937570;28;118627;-66
2022/05/04 08:29:49;;;;;;;1.08;0.98;;;23.80;46.60;24.20;100814.00;;;;4936604;28;88319;-66
2022/05/04 08:32:15;;;;;;;1.88;1.15;;;23.90;46.00;24.40;100819.00;;;;4937541;28;87745;-67
2022/05/04 08:34:41;;;;;;;1.17;1.00;;;24.10;45.90;24.60;100816.00;;;;4936272;28;87917;-69
2022/05/04 08:37:07;;;;;;;1.38;0.70;;;24.30;45.40;24.80;100813.00;;;;4936513;28;87690;-69
2022/05/04 08:39:33;;;;;;;1.77;1.08;;;24.50;44.60;25.00;100814.00;;;;4954767;28;87870;-71
2022/05/04 08:42:00;;;;;;;2.08;0.80;;;24.70;44.20;25.20;100817.00;;;;4952817;28;110413;-71
2022/05/04 08:44:27;;;;;;;1.20;0.90;;;24.80;42.20;25.40;100812.00;;;;4955367;28;88927;-71
2022/05/04 08:46:55;;;;;;;1.08;0.90;;;25.10;40.40;25.30;100806.00;;;;4954757;28;117442;-71
2022/05/04 08:49:22;;;;;;;1.05;0.88;;;25.00;39.70;25.30;100809.00;;;;4954244;28;117801;-69
2022/05/04 08:51:50;;;;;;;1.88;1.08;;;25.00;39.10;25.30;100822.00;;;;4953226;28;110478;-68
2022/05/04 08:54:17;;;;;;;1.42;1.17;;;25.00;39.70;25.30;100810.00;;;;4956175;28;87710;-68
2022/05/04 08:56:43;;;;;;;2.53;0.70;;;25.00;39.50;25.30;100811.00;;;;4955790;28;89030;-71
2022/05/04 08:59:09;;;;;;;1.77;1.05;;;25.00;39.60;25.30;100809.00;;;;4952543;28;89256;-70
2022/05/04 09:01:39;;;;;;;0.88;0.80;;;25.00;38.10;25.20;100811.00;;;;4955041;28;108454;-69
2022/05/04 09:04:05;;;;;;;3.70;0.80;;;25.00;39.10;25.40;100810.00;;;;4939170;28;87853;-69
2022/05/04 09:06:36;;;;;;;2.13;1.02;;;25.00;39.30;25.50;100807.00;;;;4950033;28;88057;-71
2022/05/04 09:09:10;;;;;;;1.20;1.10;;;25.00;39.30;25.70;100801.00;;;;4934918;28;88632;-72
2022/05/04 09:11:38;;;;;;;0.82;0.70;;;25.30;39.80;25.90;100806.00;;;;4933548;28;87823;-68
2022/05/04 09:14:35;;;;;;;1.08;0.98;;;25.40;39.10;26.20;100807.00;;;;4942752;28;87953;-68
2022/05/04 09:17:04;;;;;;;1.30;1.00;;;25.80;39.10;26.40;100805.00;;;;4933688;28;90553;-68
2022/05/04 09:19:30;;;;;;;2.22;1.50;;;25.90;38.90;26.60;100806.00;;;;4941562;28;88300;-71
2022/05/04 09:21:56;;;;;;;1.38;1.00;;;26.20;38.60;26.80;100796.00;;;;4958044;28;90457;-71
2022/05/04 09:24:30;;;;;;;1.85;0.90;;;26.30;38.30;26.90;100801.00;;;;4950688;28;107003;-70
2022/05/04 09:26:59;;;;;;;2.25;1.17;;;26.40;38.10;26.90;100797.00;;;;4939216;28;88334;-69
2022/05/04 09:29:42;;;;;;;1.40;1.00;;;26.50;38.40;27.00;100812.00;;;;4939005;28;88266;-69
2022/05/04 09:32:17;;;;;;;2.88;0.90;;;26.70;38.40;27.20;100797.00;;;;4937064;28;88047;-69
2022/05/04 09:34:44;;;;;;;0.65;0.65;;;26.80;38.10;27.40;100799.00;;;;4939294;28;88609;-70
2022/05/04 09:45:38;;;;;;;0.75;0.75;;;27.40;36.50;28.10;100787.00;;;;4943190;28;87724;-71
2022/05/04 09:48:04;;;;;;;1.58;1.10;;;27.50;36.10;28.20;100787.00;;;;4956309;28;87663;-70
2022/05/04 09:50:40;;;;;;;0.95;0.88;;;27.70;36.10;28.30;100796.00;;;;4955784;28;89166;-70
2022/05/04 09:53:07;;;;;;;3.70;0.95;;;27.90;35.60;28.20;100787.00;;;;4959271;28;87168;-70
2022/05/04 09:55:34;;;;;;;0.82;0.82;;;27.80;34.30;27.60;100789.00;;;;4957049;28;87943;-71
2022/05/04 09:58:00;;;;;;;4.03;1.40;;;27.40;32.90;27.30;100792.00;;;;4953930;28;116431;-71
2022/05/04 10:00:26;;;;;;;1.92;1.13;;;27.00;34.30;27.20;100792.00;;;;4957253;28;97383;-69
2022/05/04 10:02:54;;;;;;;2.10;1.20;;;26.80;35.00;27.40;100787.00;;;;4957911;28;87714;-69
2022/05/04 10:05:21;;;;;;;1.80;1.00;;;26.90;35.20;27.20;100788.00;;;;4957700;28;88001;-70
2022/05/04 10:07:49;;;;;;;1.10;0.60;;;26.90;33.50;26.90;100786.00;;;;4942467;28;89204;-70
2022/05/04 10:10:25;;;;;;;2.22;1.52;;;26.50;33.50;26.60;100783.00;;;;4937612;28;88797;-69
2022/05/04 10:12:51;;;;;;;0.82;0.80;;;26.30;34.20;26.70;100785.00;;;;4937795;28;88053;-71
2022/05/04 10:15:19;;;;;;;1.10;1.05;;;26.20;34.90;27.00;100781.00;;;;4937681;28;107428;-70
2022/05/04 10:18:05;;;;;;;1.92;0.90;;;26.30;35.30;27.30;100787.00;;;;4945320;28;111734;-70
2022/05/04 10:20:37;;;;;;;1.75;1.25;;;26.60;35.50;27.40;100787.00;;;;4944644;28;87974;-70
2022/05/04 10:23:14;;;;;;;1.17;0.70;;;26.80;35.50;27.40;100788.00;;;;4957892;28;87859;-72
2022/05/04 10:25:42;;;;;;;1.25;1.15;;;26.90;35.40;27.50;100783.00;;;;4955194;28;89503;-70
2022/05/04 10:28:13;;;;;;;1.70;1.55;;;26.90;35.20;27.50;100786.00;;;;4949000;28;88182;-71
2022/05/04 10:30:56;;;;;;;1.33;1.10;;;27.00;34.50;27.50;100780.00;;;;4937962;28;88885;-70
2022/05/04 10:33:25;;;;;;;0.98;0.93;;;26.90;34.80;27.40;100788.00;;;;4966722;28;87841;-70
2022/05/04 10:35:51;;;;;;;3.47;1.00;;;27.00;34.70;27.30;100779.00;;;;4955943;28;88055;-70
2022/05/04 10:38:21;;;;;;;0.80;0.80;;;26.90;34.30;27.00;100776.00;;;;4952130;28;88389;-71
2022/05/04 10:41:07;;;;;;;1.65;1.10;;;26.60;34.10;26.70;100782.00;;;;4935286;28;87788;-69
2022/05/04 10:43:46;;;;;;;0.93;0.88;;;26.40;34.80;26.60;100777.00;;;;4938093;28;87233;-69
2022/05/04 10:46:25;;;;;;;1.70;0.70;;;26.20;35.60;26.50;100772.00;;;;4938331;28;87856;-70
2022/05/04 10:48:59;;;;;;;1.00;0.98;;;26.10;35.60;26.40;100773.00;;;;4938403;28;88082;-70
2022/05/04 10:51:50;;;;;;;1.27;0.60;;;26.00;35.50;26.10;100773.00;;;;4951689;28;88789;-69
2022/05/04 10:54:21;;;;;;;2.80;1.25;;;25.80;35.50;25.90;100773.00;;;;4937476;28;87859;-72
2022/05/04 10:57:08;;;;;;;1.80;1.30;;;25.60;35.30;25.50;100771.00;;;;4937587;28;87707;-72
2022/05/04 10:59:35;;;;;;;0.80;0.75;;;25.20;35.60;25.40;100776.00;;;;4940000;28;117029;-69
2022/05/04 11:02:11;;;;;;;2.00;1.27;;;25.00;36.00;25.20;100771.00;;;;4957332;28;88043;-68
2022/05/04 11:04:39;;;;;;;1.52;1.15;;;24.90;35.90;24.90;100773.00;;;;4956734;28;100921;-69
2022/05/04 11:07:07;;;;;;;3.20;1.27;;;24.70;36.00;24.70;100764.00;;;;4941895;28;97957;-68
2022/05/04 11:09:42;;;;;;;0.60;0.60;;;24.40;36.40;24.60;100762.00;;;;4938186;28;88295;-69
2022/05/04 11:12:10;;;;;;;1.30;0.93;;;24.30;36.80;24.40;100769.00;;;;4951032;28;87847;-72
2022/05/04 11:14:36;;;;;;;2.30;1.80;;;24.10;37.20;24.20;100772.00;;;;4937377;28;87778;-69
2022/05/04 11:17:13;;;;;;;1.15;0.75;;;23.90;37.00;24.10;100770.00;;;;4935884;28;108156;-69
2022/05/04 11:19:47;;;;;;;1.05;0.95;;;23.80;37.50;23.90;100764.00;;;;4950312;28;88051;-69
2022/05/04 11:22:15;;;;;;;0.95;0.82;;;23.60;37.40;23.80;100772.00;;;;4936208;28;87816;-69